Latest Weather Observations for Ballarat

IDV60801

Issued at 7:32 pm EDT Friday 20 October 2017 (issued every 30 minutes, with the page automatically refreshed every 10 minutes)

About weather observations | Map of weather stations | Latest weather observations for VIC | Other Formats
Station Details ID: 089002 Name: BALLARAT AERODROME Lat: -37.51 Lon: 143.79 Height: 435.2 m
Data from the previous 72 hours. | See also: Recent months at Ballarat
Date/Time
EDT
Temp
°C
App
Temp
°C
Dew
Point
°C
Rel
Hum
%
Delta-T
°C
Wind Press
QNH
hPa
Press
MSL
hPa
Rain since
9am
mm
Dir  Spd
km/h
Gust
km/h
Spd
kts
Gust
kts
20/07:30pm 9.1 3.9 3.5 68 2.5 SSW 20 30 11 16 1027.7 1027.8 0.0
20/07:00pm 10.6 4.3 3.6 62 3.1 S 26 39 14 21 1027.5 1027.6 0.0
20/06:30pm 11.3 4.7 4.1 61 3.3 S 28 37 15 20 1027.4 1027.5 0.0
20/06:00pm 11.1 4.1 4.1 62 3.2 S 30 37 16 20 1027.3 1027.3 0.0
20/05:30pm 11.5 4.9 4.3 61 3.3 S 28 39 15 21 1027.2 1027.2 0.0
20/05:00pm 12.7 5.6 3.6 54 4.1 S 30 41 16 22 1027.1 1027.1 0.0
20/04:30pm 13.5 6.5 4.1 53 4.4 S 30 43 16 23 1027.0 1027.0 0.0
20/04:00pm 11.9 5.1 2.9 54 4.0 SSW 28 39 15 21 1027.1 1027.1 0.0
20/03:30pm 13.0 6.0 4.2 55 4.1 S 30 43 16 23 1027.1 1027.1 0.0
20/03:00pm 13.1 6.8 5.5 60 3.6 SSW 28 43 15 23 1027.3 1027.3 0.0
20/02:30pm 13.0 6.4 4.2 55 4.1 S 28 43 15 23 1027.4 1027.5 0.0
20/02:00pm 13.0 6.9 2.8 50 4.6 SSW 24 41 13 22 1027.4 1027.5 0.0
20/01:30pm 12.5 6.2 3.7 55 4.0 S 26 41 14 22 1027.4 1027.5 0.0
20/01:00pm 12.8 6.7 4.8 58 3.7 S 26 37 14 20 1027.5 1027.6 0.0
20/12:30pm 11.5 4.2 2.3 53 4.1 SSW 30 41 16 22 1027.6 1027.7 0.0
20/12:00pm 12.5 6.4 6.5 67 2.9 S 28 39 15 21 1027.9 1027.9 0.0
20/11:30am 11.2 4.8 5.1 66 2.9 S 28 37 15 20 1027.9 1027.9 0.0
20/11:00am 10.9 4.8 4.8 66 2.8 S 26 43 14 23 1027.9 1027.9 0.0
20/10:30am 10.6 5.2 4.5 66 2.8 SSW 22 33 12 18 1027.7 1027.8 0.0
20/10:00am 10.1 4.4 4.9 70 2.4 SSW 24 33 13 18 1027.5 1027.6 0.0
20/09:30am 9.1 3.1 5.1 76 1.8 SSW 26 39 14 21 1027.3 1027.3 0.0
20/09:00am 9.5 3.8 6.6 82 1.4 S 26 41 14 22 1027.0 1027.0 0.2
20/08:30am 8.6 3.3 6.7 88 0.9 S 24 35 13 19 1026.7 1026.7 0.2
20/08:00am 8.0 3.7 7.7 98 0.1 S 20 26 11 14 1026.4 1026.4 0.2
20/07:30am 7.4 3.5 7.3 99 0.0 SSW 17 24 9 13 1026.1 1026.1 0.2
20/07:08am 7.3 3.8 7.2 99 0.0 SSW 15 26 8 14 1025.9 1025.9 0.2
20/07:00am 7.2 3.3 7.1 99 0.0 SSW 17 26 9 14 1025.8 1025.8 0.2
20/06:44am 7.3 3.8 7.2 99 0.0 SSW 15 19 8 10 1025.5 1025.5 0.2
20/06:30am 7.4 4.3 7.3 99 0.0 SSW 13 20 7 11 1025.2 1025.2 0.2
20/06:00am 7.4 3.9 7.3 99 0.0 SSW 15 22 8 12 1024.8 1024.8 0.2
20/05:52am 7.5 4.0 7.4 99 0.0 SSW 15 22 8 12 1024.7 1024.7 0.2
20/05:30am 7.7 3.9 7.6 99 0.0 SSW 17 33 9 18 1024.4 1024.4 0.2
20/05:16am 7.8 4.4 7.7 99 0.0 SSW 15 24 8 13 1024.3 1024.3 0.2
20/05:00am 7.9 4.5 7.8 99 0.0 SSW 15 20 8 11 1024.1 1024.1 0.2
20/04:41am 7.9 4.2 7.8 99 0.0 SSW 17 22 9 12 1024.1 1024.1 0.2
20/04:30am 7.8 4.0 7.7 99 0.0 SSW 17 24 9 13 1024.1 1024.1 0.2
20/04:00am 7.8 4.4 7.7 99 0.0 SW 15 26 8 14 1023.9 1023.9 0.2
20/03:33am 8.0 5.4 7.9 99 0.0 SSW 11 17 6 9 1024.0 1024.0 0.2
20/03:30am 7.9 5.3 7.8 99 0.0 SSW 11 17 6 9 1024.0 1024.0 0.2
20/03:03am 7.8 4.4 7.7 99 0.0 SW 15 22 8 12 1024.1 1024.1 0.2
20/03:02am 7.8 4.4 7.7 99 0.0 SW 15 22 8 12 1024.1 1024.1 0.2
20/03:00am 7.8 4.0 7.7 99 0.0 SW 17 32 9 17 1024.1 1024.1 0.2
20/02:52am 7.8 4.4 7.7 99 0.0 SW 15 32 8 17 1024.1 1024.1 0.2
20/02:48am 8.0 5.0 7.9 99 0.0 SW 13 26 7 14 1024.1 1024.1 0.2
20/02:30am 7.9 5.6 7.6 98 0.1 SW 9 13 5 7 1023.9 1023.9 0.0
20/02:00am 7.5 5.1 7.2 98 0.1 SSW 9 13 5 7 1023.9 1023.9 0.0
20/01:30am 7.4 3.9 7.1 98 0.1 SW 15 20 8 11 1024.1 1024.1 0.0
20/01:00am 7.5 4.0 7.2 98 0.1 SW 15 19 8 10 1024.1 1024.1 0.0
20/12:30am 7.6 4.5 7.3 98 0.1 SW 13 19 7 10 1024.1 1024.1 0.0
20/12:00am 7.7 4.6 7.1 96 0.3 SSW 13 17 7 9 1024.3 1024.3 0.0
 
Date/Time
EDT
Temp
°C
App
Temp
°C
Dew
Point
°C
Rel
Hum
%
Delta-T
°C
Wind Press
QNH
hPa
Press
MSL
hPa
Rain since
9am
mm
Dir  Spd
km/h
Gust
km/h
Spd
kts
Gust
kts
19/11:30pm 8.1 5.0 7.3 95 0.4 SSW 13 17 7 9 1024.0 1024.0 0.0
19/11:00pm 8.5 5.4 7.4 93 0.5 SSW 13 19 7 10 1024.1 1024.1 0.0
19/10:30pm 9.2 5.8 7.6 90 0.8 S 15 20 8 11 1024.1 1024.1 0.0
19/10:00pm 9.7 6.1 8.3 91 0.7 SSW 17 24 9 13 1023.9 1023.9 0.0
19/09:30pm 9.9 7.0 9.6 98 0.2 S 15 20 8 11 1023.6 1023.6 0.0
19/09:00pm 10.5 6.8 9.6 94 0.5 SSW 19 26 10 14 1022.8 1022.8 0.0
19/08:30pm 11.0 7.3 10.2 95 0.4 SSW 20 26 11 14 1022.2 1022.2 0.0
19/08:00pm 11.2 6.8 10.4 95 0.4 SSW 24 32 13 17 1021.4 1021.3 0.0
19/07:30pm 12.2 8.5 11.4 95 0.4 SSW 22 33 12 18 1021.0 1020.9 0.0
19/07:00pm 13.0 9.1 12.1 94 0.5 SW 24 35 13 19 1020.2 1020.2 0.0
19/06:30pm 14.2 11.3 12.2 88 1.1 SW 19 28 10 15 1019.5 1019.5 0.0
19/06:00pm 14.9 11.0 13.4 91 0.9 SW 26 37 14 20 1018.7 1018.6 0.0
19/05:50pm 14.9 10.8 13.8 93 0.6 SW 28 37 15 20 1018.7 1018.6 0.0
19/05:30pm 14.9 12.2 14.7 99 0.1 SW 22 32 12 17 1018.7 1018.6 0.0
19/05:00pm 15.4 13.3 15.2 99 0.1 SSW 20 32 11 17 1018.8 1018.7 0.0
19/04:30pm 16.4 14.7 16.2 99 0.1 SSW 20 30 11 16 1018.4 1018.3 0.0
19/04:08pm 17.6 16.3 17.3 98 0.2 SW 20 32 11 17 1018.3 1018.2 0.0
19/04:00pm 18.7 17.5 17.5 93 0.7 SW 20 33 11 18 1018.5 1018.4 0.0
19/03:50pm 18.7 15.9 16.3 86 1.5 WSW 26 41 14 22 1018.3 1018.2 0.0
19/03:30pm 21.3 21.0 18.3 83 1.9 WNW 17 22 9 12 1018.2 1018.1 0.0
19/03:00pm 19.7 18.2 16.7 83 1.8 W 20 26 11 14 1018.4 1018.3 0.0
19/02:30pm 21.0 17.8 16.4 75 2.8 WNW 28 37 15 20 1018.2 1018.1 0.0
19/02:00pm 20.3 18.0 16.7 80 2.2 WNW 24 35 13 19 1017.9 1017.9 0.0
19/01:30pm 20.7 17.0 15.9 74 2.9 WNW 30 35 16 19 1017.8 1017.8 0.0
19/01:00pm 21.0 18.4 16.8 77 2.6 WNW 26 32 14 17 1017.5 1017.4 0.0
19/12:30pm 20.4 17.8 17.8 85 1.6 NW 28 37 15 20 1017.4 1017.3 0.0
19/12:00pm 21.2 21.2 20.9 98 0.2 NNW 22 30 12 16 1017.4 1017.3 0.0
19/11:42am 20.5 19.8 20.3 99 0.1 N 24 28 13 15 1017.6 1017.6 0.0
19/11:30am 19.7 19.1 19.7 100 0.0 N 22 28 12 15 1017.5 1017.4 0.0
19/11:12am 19.0 17.7 19.0 100 0.0 N 24 30 13 16 1017.5 1017.4 0.0
19/11:00am 18.8 18.2 18.8 100 0.0 N 20 30 11 16 1017.2 1017.1 0.0
19/10:56am 18.6 18.1 18.6 100 0.0 N 19 24 10 13 1017.1 1017.0 0.0
19/10:30am 17.4 16.3 17.4 100 0.0 N 19 24 10 13 1017.3 1017.2 0.0
19/10:00am 17.2 16.1 17.2 100 0.0 NNE 19 24 10 13 1017.0 1016.9 0.0
19/09:30am 16.5 16.6 16.5 100 0.0 NW 11 13 6 7 1017.3 1017.2 0.0
19/09:00am 16.1 16.0 16.1 100 0.0 NNW 11 15 6 8 1017.5 1017.4 11.0
19/08:58am 16.0 15.9 16.0 100 0.0 NNW 11 15 6 8 1017.4 1017.3 11.0
19/08:30am 15.8 15.6 15.8 100 0.0 N 11 13 6 7 1017.3 1017.2 10.8
19/08:08am 15.5 15.6 15.5 100 0.0 N 9 13 5 7 1017.2 1017.1 10.8
19/08:00am 15.5 16.0 15.5 100 0.0 NNE 7 11 4 6 1017.0 1016.9 10.8
19/07:30am 15.3 15.3 15.3 100 0.0 N 9 13 5 7 1016.9 1016.8 7.0
19/07:19am 15.3 14.6 15.3 100 0.0 N 13 17 7 9 1016.7 1016.6 5.2
19/07:03am 15.2 14.4 15.2 100 0.0 N 13 15 7 8 1016.5 1016.4 4.0
19/07:00am 15.2 14.4 15.2 100 0.0 N 13 15 7 8 1016.5 1016.4 4.0
19/06:44am 15.2 14.8 15.2 100 0.0 NNW 11 13 6 7 1016.5 1016.4 3.4
19/06:30am 15.1 14.7 15.1 100 0.0 N 11 15 6 8 1016.3 1016.2 2.2
19/06:00am 15.0 14.2 15.0 100 0.0 NNW 13 15 7 8 1016.3 1016.2 2.2
19/05:30am 14.9 14.8 14.9 100 0.0 NW 9 11 5 6 1015.7 1015.6 2.0
19/05:00am 15.3 14.5 15.1 99 0.1 N 13 15 7 8 1015.9 1015.8 2.0
19/04:30am 15.2 14.4 15.0 99 0.1 NNE 13 17 7 9 1016.5 1016.4 1.4
19/04:00am 15.9 12.8 14.6 92 0.8 N 24 32 13 17 1016.6 1016.5 0.4
19/03:30am 17.0 12.5 12.7 76 2.4 N 28 33 15 18 1016.6 1016.5 0.0
19/03:00am 18.5 14.4 11.6 64 3.9 N 24 30 13 16 1016.3 1016.2 0.0
19/02:30am 18.7 14.6 11.5 63 4.0 NNE 24 32 13 17 1016.6 1016.5 0.0
19/02:00am 18.7 14.6 11.3 62 4.1 N 24 30 13 16 1017.0 1016.9 0.0
19/01:30am 19.5 14.1 10.8 57 4.8 N 30 37 16 20 1017.4 1017.3 0.0
19/01:00am 19.2 15.4 11.0 59 4.6 N 22 35 12 19 1017.3 1017.2 0.0
19/12:30am 19.6 14.4 10.3 55 5.1 NNE 28 35 15 19 1017.5 1017.4 0.0
19/12:00am 20.7 13.4 10.2 51 5.8 NNE 39 54 21 29 1017.4 1017.3 0.0
 
Date/Time
EDT
Temp
°C
App
Temp
°C
Dew
Point
°C
Rel
Hum
%
Delta-T
°C
Wind Press
QNH
hPa
Press
MSL
hPa
Rain since
9am
mm
Dir  Spd
km/h
Gust
km/h
Spd
kts
Gust
kts
18/11:30pm 21.0 15.0 10.2 50 6.0 NNE 32 39 17 21 1017.6 1017.6 0.0
18/11:00pm 21.5 15.6 10.3 49 6.2 NE 32 43 17 23 1017.8 1017.8 0.0
18/10:30pm 21.5 15.9 10.3 49 6.2 NE 30 39 16 21 1018.4 1018.3 0.0
18/10:00pm 21.5 16.9 10.9 51 5.9 NE 26 37 14 20 1018.8 1018.7 0.0
18/09:30pm 21.6 17.1 11.3 52 5.8 NNE 26 35 14 19 1019.0 1018.9 0.0
18/09:00pm 21.2 18.1 11.5 54 5.5 NE 19 26 10 14 1019.0 1018.9 0.0
18/08:30pm 21.6 18.2 11.3 52 5.8 NE 20 24 11 13 1018.7 1018.6 0.0
18/08:00pm 21.6 18.8 11.3 52 5.8 NE 17 20 9 11 1018.5 1018.4 0.0
18/07:30pm 22.7 18.3 9.1 42 7.4 NNE 22 28 12 15 1018.3 1018.2 0.0
18/07:00pm 24.1 19.2 8.5 37 8.5 NNE 24 30 13 16 1017.8 1017.8 0.0
18/06:30pm 25.0 19.8 8.9 36 8.9 NNE 26 35 14 19 1017.7 1017.7 0.0
18/06:00pm 25.9 20.3 8.8 34 9.5 NNE 28 37 15 20 1017.6 1017.6 0.0
18/05:30pm 26.4 21.1 9.7 35 9.4 NNE 28 41 15 22 1017.5 1017.4 0.0
18/05:00pm 26.6 20.7 9.0 33 9.8 NNE 30 43 16 23 1017.6 1017.6 0.0
18/04:30pm 26.8 21.0 9.6 34 9.7 N 30 39 16 21 1017.9 1017.9 0.0
18/04:00pm 26.7 20.8 10.4 36 9.3 NNE 32 43 17 23 1018.3 1018.2 0.0
18/03:30pm 26.4 20.0 9.3 34 9.6 NNE 33 43 18 23 1018.6 1018.5 0.0
18/03:00pm 26.1 19.9 9.5 35 9.3 NNE 32 43 17 23 1019.1 1019.0 0.0
18/02:30pm 25.9 19.2 9.7 36 9.1 N 35 46 19 25 1019.7 1019.7 0.0
18/02:00pm 25.5 19.6 11.3 41 8.2 N 33 44 18 24 1020.3 1020.3 0.0
18/01:30pm 25.0 19.2 10.8 41 8.1 NNE 32 41 17 22 1021.0 1020.9 0.0
18/01:00pm 24.3 18.5 10.9 43 7.6 N 32 44 17 24 1021.3 1021.2 0.0
18/12:30pm 23.7 17.9 10.7 44 7.4 N 32 39 17 21 1021.4 1021.3 0.0
18/12:00pm 23.0 16.5 10.4 45 7.0 N 35 44 19 24 1021.7 1021.7 0.0
18/11:30am 22.6 16.5 10.4 46 6.8 NNE 33 43 18 23 1022.0 1022.0 0.0
18/11:00am 21.9 15.7 10.1 47 6.5 N 33 43 18 23 1022.3 1022.3 0.0
18/10:30am 21.2 15.1 9.8 48 6.3 N 32 41 17 22 1022.4 1022.4 0.0
18/10:00am 20.4 14.3 8.4 46 6.4 N 30 37 16 20 1022.5 1022.5 0.0
18/09:30am 19.8 14.2 8.8 49 5.9 NNE 28 39 15 21 1022.6 1022.6 0.0
18/09:00am 18.9 14.5 8.8 52 5.4 N 22 30 12 16 1022.8 1022.8 0.0
18/08:30am 17.9 15.1 8.7 55 4.9 N 13 19 7 10 1023.0 1022.9 0.0
18/08:00am 16.9 13.7 6.7 51 5.1 NNE 13 17 7 9 1022.6 1022.6 0.0
18/07:30am 15.4 12.2 5.3 51 4.9 NNE 11 15 6 8 1022.5 1022.5 0.0
18/07:00am 13.0 10.5 4.7 57 3.9 NE 7 11 4 6 1022.2 1022.2 0.0
18/06:30am 11.5 9.4 6.0 69 2.6 ENE 6 7 3 4 1021.9 1021.9 0.0
18/06:00am 10.6 8.5 5.6 71 2.3 NE 6 7 3 4 1021.7 1021.7 0.0
18/05:30am 10.3 8.5 5.3 71 2.3 NW 4 6 2 3 1021.6 1021.6 0.0
18/05:00am 11.4 9.3 5.7 68 2.7 W 6 7 3 4 1021.4 1021.3 0.0
18/04:30am 13.7 11.2 4.8 55 4.2 WNW 7 7 4 4 1021.2 1021.1 0.0
18/04:00am 15.8 13.2 4.2 46 5.5 NNE 7 9 4 5 1021.2 1021.1 0.0
18/03:30am 14.7 11.5 5.2 53 4.6 NE 11 13 6 7 1021.4 1021.3 0.0
18/03:00am 14.4 10.5 5.2 54 4.4 NE 15 17 8 9 1021.4 1021.3 0.0
18/02:30am 14.0 9.8 5.6 57 4.1 NE 17 19 9 10 1021.6 1021.6 0.0
18/02:00am 13.3 9.9 5.7 60 3.7 NE 13 15 7 8 1021.8 1021.8 0.0
18/01:30am 16.0 13.2 5.0 48 5.3 NNE 9 11 5 6 1022.2 1022.2 0.0
18/01:00am 15.2 12.2 6.0 54 4.5 NNE 11 13 6 7 1022.4 1022.4 0.0
18/12:30am 14.2 10.6 6.8 61 3.7 NNE 15 17 8 9 1022.5 1022.5 0.0
18/12:00am 14.9 11.6 7.9 63 3.6 NE 15 17 8 9 1022.7 1022.7 0.0
 
Date/Time
EDT
Temp
°C
App
Temp
°C
Dew
Point
°C
Rel
Hum
%
Delta-T
°C
Wind Press
QNH
hPa
Press
MSL
hPa
Rain since
9am
mm
Dir  Spd
km/h
Gust
km/h
Spd
kts
Gust
kts
17/11:30pm 14.4 11.7 7.2 62 3.6 NE 11 13 6 7 1022.8 1022.8 0.0
17/11:00pm 16.3 13.9 7.0 54 4.7 NNE 9 11 5 6 1023.1 1023.0 0.0
17/10:30pm 16.3 12.5 7.5 56 4.5 ENE 17 19 9 10 1023.1 1023.0 0.0
17/10:00pm 17.0 13.7 8.2 56 4.6 ENE 15 17 8 9 1023.1 1023.0 0.0
17/09:30pm 16.8 13.5 8.2 57 4.5 ENE 15 17 8 9 1023.0 1022.9 0.0
17/09:00pm 17.9 15.0 8.2 53 5.1 ENE 13 13 7 7 1022.7 1022.7 0.0
17/08:30pm 18.6 16.2 8.8 53 5.2 NE 11 15 6 8 1022.3 1022.3 0.0
17/08:00pm 19.0 16.1 8.1 49 5.7 ENE 13 15 7 8 1021.9 1021.9 0.0

Other Formats:

Comma delimited format used in spreadsheet applications
http://www.bom.gov.au/fwo/IDV60801/IDV60801.94852.axf

JavaScript Object Notation format (JSON) in row-major order
http://www.bom.gov.au/fwo/IDV60801/IDV60801.94852.json